createdAt,value
2016-11-13T00:00:19.363Z,17.7
2016-11-13T00:01:28.051Z,17.68
2016-11-13T00:02:37.061Z,17.63
2016-11-13T00:03:46.080Z,17.63
2016-11-13T00:04:55.070Z,17.66
2016-11-13T00:06:04.076Z,17.72
2016-11-13T00:07:12.754Z,17.71
2016-11-13T00:08:21.437Z,17.56
2016-11-13T00:09:30.131Z,17.7
2016-11-13T00:10:38.836Z,17.7
2016-11-13T00:11:48.141Z,17.74
2016-11-13T00:12:57.743Z,17.71
2016-11-13T00:14:07.697Z,17.68
2016-11-13T00:15:17.319Z,17.58
2016-11-13T00:16:26.309Z,17.59
2016-11-13T00:17:35.308Z,17.64
2016-11-13T00:18:43.994Z,17.59
2016-11-13T00:19:52.701Z,17.63
2016-11-13T00:21:01.688Z,17.68
2016-11-13T00:22:10.398Z,17.81
2016-11-13T00:23:19.700Z,17.71
2016-11-13T00:24:28.686Z,17.58
2016-11-13T00:25:38.292Z,17.62
2016-11-13T00:26:47.294Z,17.55
2016-11-13T00:27:56.903Z,17.52
2016-11-13T00:29:05.751Z,17.48
2016-11-13T00:30:14.749Z,17.49
2016-11-13T00:31:23.748Z,17.55
2016-11-13T00:32:33.051Z,17.66
2016-11-13T00:33:42.054Z,17.56
2016-11-13T00:34:51.355Z,17.49
2016-11-13T00:36:00.660Z,17.52
2016-11-13T00:37:09.350Z,17.54
2016-11-13T00:38:18.643Z,17.51
2016-11-13T00:39:28.259Z,17.41
2016-11-13T00:40:38.026Z,17.51
2016-11-13T00:41:47.457Z,17.48
2016-11-13T00:42:56.762Z,17.54
2016-11-13T00:44:05.483Z,17.44
2016-11-13T00:45:14.179Z,17.48
2016-11-13T00:46:23.780Z,17.46
2016-11-13T00:47:32.779Z,17.41
2016-11-13T00:48:41.764Z,17.51
2016-11-13T00:49:50.443Z,17.48
2016-11-13T00:51:00.059Z,17.46
2016-11-13T00:52:09.045Z,17.52
2016-11-13T00:53:18.347Z,17.44
2016-11-13T00:54:27.633Z,17.38
2016-11-13T00:55:36.312Z,17.49
2016-11-13T00:56:45.614Z,17.36
2016-11-13T00:57:54.294Z,17.3
2016-11-13T00:59:03.297Z,17.46
2016-11-13T01:00:12.324Z,17.3
2016-11-13T01:01:21.942Z,17.3
2016-11-13T01:02:30.632Z,17.3
2016-11-13T01:03:40.087Z,17.28
2016-11-13T01:04:49.076Z,17.34
2016-11-13T01:05:57.765Z,17.34
2016-11-13T01:07:06.771Z,17.37
2016-11-13T01:08:16.068Z,17.3
2016-11-13T01:09:25.374Z,17.43
2016-11-13T01:10:34.062Z,17.44
2016-11-13T01:11:42.748Z,17.44
2016-11-13T01:12:52.362Z,17.3
2016-11-13T01:14:01.343Z,17.31
2016-11-13T01:15:11.099Z,17.3
2016-11-13T01:16:20.094Z,17.31
2016-11-13T01:17:29.095Z,17.28
2016-11-13T01:18:38.386Z,17.31
2016-11-13T01:19:47.078Z,17.23
2016-11-13T01:20:56.718Z,17.3
2016-11-13T01:22:05.716Z,17.3
2016-11-13T01:23:15.016Z,17.26
2016-11-13T01:24:23.709Z,17.3
2016-11-13T01:25:32.419Z,17.3
2016-11-13T01:26:41.115Z,17.3
2016-11-13T01:27:50.421Z,17.28
2016-11-13T01:28:59.103Z,17.28
2016-11-13T01:30:07.799Z,17.22
2016-11-13T01:31:16.796Z,17.12
2016-11-13T01:32:26.098Z,17.23
2016-11-13T01:33:35.700Z,17.26
2016-11-13T01:34:44.686Z,17.31
2016-11-13T01:35:53.672Z,17.25
2016-11-13T01:37:02.963Z,17.3
2016-11-13T01:38:12.004Z,17.31
2016-11-13T01:39:20.685Z,17.26
2016-11-13T01:40:29.986Z,17.31
2016-11-13T01:41:39.316Z,17.3
2016-11-13T01:42:48.618Z,17.26
2016-11-13T01:43:58.064Z,17.19
2016-11-13T01:45:06.758Z,17.21
2016-11-13T01:46:15.749Z,17.22
2016-11-13T01:47:25.362Z,17.22
2016-11-13T01:48:34.360Z,17.19
2016-11-13T01:49:43.215Z,17.19
2016-11-13T01:50:52.247Z,17.18
2016-11-13T01:52:01.231Z,17.16
2016-11-13T01:53:10.562Z,17.18
2016-11-13T01:54:20.168Z,17.16
2016-11-13T01:55:29.465Z,17.23
2016-11-13T01:56:38.459Z,17.28
2016-11-13T01:57:47.741Z,17.23
2016-11-13T01:58:56.423Z,17.18
2016-11-13T02:00:05.410Z,17.31
2016-11-13T02:01:14.695Z,17.25
2016-11-13T02:02:23.380Z,17.19
2016-11-13T02:03:32.679Z,17.14
2016-11-13T02:04:41.359Z,17.19
2016-11-13T02:05:50.366Z,17.12
2016-11-13T02:06:59.818Z,17.18
2016-11-13T02:08:08.813Z,17.16
2016-11-13T02:09:17.517Z,17.22
2016-11-13T02:10:26.525Z,17.21
2016-11-13T02:11:36.127Z,17.21
2016-11-13T02:12:45.292Z,17.16
2016-11-13T02:13:53.986Z,17.16
2016-11-13T02:15:02.670Z,17.19
2016-11-13T02:16:11.980Z,17.21
2016-11-13T02:17:20.955Z,17.25
2016-11-13T02:18:30.289Z,17.06
2016-11-13T02:19:39.287Z,17.12
2016-11-13T02:20:47.970Z,17.12
2016-11-13T02:21:57.585Z,17.14
2016-11-13T02:23:06.285Z,17.06
2016-11-13T02:24:15.625Z,17.16
2016-11-13T02:25:24.616Z,17.11
2016-11-13T02:26:33.612Z,17.14
2016-11-13T02:27:42.312Z,17.16
2016-11-13T02:28:51.301Z,17.12
2016-11-13T02:30:00.139Z,17.08
2016-11-13T02:31:08.826Z,17.21
2016-11-13T02:32:17.509Z,17.04
2016-11-13T02:33:27.109Z,17.18
2016-11-13T02:34:36.103Z,17.12
2016-11-13T02:35:45.403Z,17.16
2016-11-13T02:36:54.699Z,17.16
2016-11-13T02:38:03.434Z,17.08
2016-11-13T02:39:12.791Z,17.15
2016-11-13T02:40:21.470Z,17.18
2016-11-13T02:41:30.776Z,17.16
2016-11-13T02:42:39.761Z,17.12
2016-11-13T02:43:48.479Z,17.16
2016-11-13T02:44:57.495Z,17.12
2016-11-13T02:46:06.485Z,17.18
2016-11-13T02:47:15.769Z,17.06
2016-11-13T02:48:24.482Z,17.21
2016-11-13T02:49:33.156Z,17.07
2016-11-13T02:50:42.158Z,17
2016-11-13T02:51:51.451Z,17.06
2016-11-13T02:53:00.792Z,17.16
2016-11-13T02:54:09.774Z,17.07
2016-11-13T02:55:18.799Z,17.15
2016-11-13T02:56:28.089Z,17.16
2016-11-13T02:57:37.089Z,17.22
2016-11-13T02:58:46.376Z,17.12
2016-11-13T02:59:55.369Z,17.14
2016-11-13T03:01:04.464Z,17.18
2016-11-13T03:02:13.461Z,17.08
2016-11-13T03:03:22.470Z,17.16
2016-11-13T03:04:32.368Z,17.16
2016-11-13T03:05:41.968Z,17.04
2016-11-13T03:06:51.280Z,17.04
2016-11-13T03:07:59.958Z,17.11
2016-11-13T03:09:09.267Z,17.06
2016-11-13T03:10:18.246Z,17.06
2016-11-13T03:11:27.239Z,17.11
2016-11-13T03:12:36.215Z,17.01
2016-11-13T03:13:45.830Z,16.98
2016-11-13T03:14:54.514Z,17.07
2016-11-13T03:16:04.121Z,17.08
2016-11-13T03:17:13.730Z,17.11
2016-11-13T03:18:22.413Z,17.07
2016-11-13T03:19:31.100Z,17.03
2016-11-13T03:20:39.783Z,17.07
2016-11-13T03:21:49.114Z,17.04
2016-11-13T03:22:57.834Z,17.04
2016-11-13T03:24:07.437Z,17.01
2016-11-13T03:25:16.123Z,16.97
2016-11-13T03:26:24.815Z,16.96
2016-11-13T03:27:34.710Z,17.01
2016-11-13T03:28:43.419Z,17.06
2016-11-13T03:29:52.119Z,17.01
2016-11-13T03:31:01.113Z,17.03
2016-11-13T03:32:10.096Z,17.06
2016-11-13T03:33:18.856Z,17.08
2016-11-13T03:34:27.547Z,17.06
2016-11-13T03:35:36.562Z,17.03
2016-11-13T03:36:45.556Z,17.15
2016-11-13T03:37:54.551Z,17.03
2016-11-13T03:39:04.150Z,17.06
2016-11-13T03:40:13.437Z,17.01
2016-11-13T03:41:22.440Z,16.97
2016-11-13T03:42:31.442Z,17.04
2016-11-13T03:43:40.430Z,17.08
2016-11-13T03:44:49.275Z,17.04
2016-11-13T03:45:58.261Z,16.97
2016-11-13T03:47:07.569Z,17.04
2016-11-13T03:48:16.552Z,17.03
2016-11-13T03:49:25.846Z,17.08
2016-11-13T03:50:34.831Z,17.06
2016-11-13T03:51:43.529Z,17.01
2016-11-13T03:52:52.524Z,17.04
2016-11-13T03:54:01.814Z,17.06
2016-11-13T03:55:10.813Z,17.03
2016-11-13T03:56:19.790Z,16.91
2016-11-13T03:57:28.778Z,16.83
2016-11-13T03:58:38.409Z,16.81
2016-11-13T03:59:47.396Z,16.85
2016-11-13T04:00:56.384Z,17.03
2016-11-13T04:02:06.593Z,16.96
2016-11-13T04:03:15.582Z,17.04
2016-11-13T04:04:24.900Z,16.94
2016-11-13T04:05:33.584Z,17
2016-11-13T04:06:42.885Z,16.93
2016-11-13T04:07:51.865Z,16.96
2016-11-13T04:09:00.550Z,16.94
2016-11-13T04:10:09.844Z,16.98
2016-11-13T04:11:18.841Z,16.94
2016-11-13T04:12:27.515Z,17
2016-11-13T04:13:36.208Z,16.83
2016-11-13T04:14:44.897Z,16.96
2016-11-13T04:15:53.594Z,16.93
2016-11-13T04:17:02.584Z,17
2016-11-13T04:18:11.923Z,16.96
2016-11-13T04:19:21.531Z,17.04
2016-11-13T04:20:30.523Z,17.07
2016-11-13T04:21:39.219Z,17.06
2016-11-13T04:22:48.214Z,17
2016-11-13T04:23:57.553Z,16.93
2016-11-13T04:25:06.853Z,16.98
2016-11-13T04:26:15.843Z,16.94
2016-11-13T04:27:25.164Z,16.98
2016-11-13T04:28:33.868Z,16.94
2016-11-13T04:29:42.601Z,16.89
2016-11-13T04:30:51.752Z,16.86
2016-11-13T04:32:01.044Z,16.79
2016-11-13T04:33:09.724Z,16.93
2016-11-13T04:34:19.026Z,16.97
2016-11-13T04:35:28.012Z,16.94
2016-11-13T04:36:37.042Z,16.97
2016-11-13T04:37:46.054Z,16.96
2016-11-13T04:38:55.049Z,16.98
2016-11-13T04:40:04.337Z,17
2016-11-13T04:41:13.030Z,16.88
2016-11-13T04:42:21.859Z,16.93
2016-11-13T04:43:31.159Z,16.86
2016-11-13T04:44:40.459Z,16.86
2016-11-13T04:45:49.783Z,16.91
2016-11-13T04:46:59.080Z,16.91
2016-11-13T04:48:08.075Z,16.93
2016-11-13T04:49:17.369Z,16.85
2016-11-13T04:50:26.700Z,16.89
2016-11-13T04:51:35.708Z,16.89
2016-11-13T04:52:45.025Z,16.78
2016-11-13T04:53:54.622Z,16.83
2016-11-13T04:55:03.924Z,16.81
2016-11-13T04:56:13.533Z,16.89
2016-11-13T04:57:22.844Z,16.89
2016-11-13T04:58:31.530Z,16.97
2016-11-13T04:59:40.558Z,16.83
2016-11-13T05:00:49.274Z,16.85
2016-11-13T05:01:58.264Z,16.78
2016-11-13T05:03:07.867Z,16.76
2016-11-13T05:04:17.168Z,16.75
2016-11-13T05:05:26.812Z,16.79
2016-11-13T05:06:35.491Z,16.83
2016-11-13T05:07:44.187Z,16.83
2016-11-13T05:08:53.484Z,16.85
2016-11-13T05:10:02.501Z,16.91
2016-11-13T05:11:12.106Z,16.89
2016-11-13T05:12:21.084Z,16.75
2016-11-13T05:13:30.380Z,16.85
2016-11-13T05:14:39.060Z,16.85
2016-11-13T05:15:47.747Z,16.83
2016-11-13T05:16:57.346Z,16.86
2016-11-13T05:18:06.649Z,16.79
2016-11-13T05:19:16.250Z,16.81
2016-11-13T05:20:25.560Z,16.75
2016-11-13T05:21:34.245Z,16.76
2016-11-13T05:22:43.857Z,16.73
2016-11-13T05:23:52.553Z,16.75
2016-11-13T05:25:02.456Z,16.75
2016-11-13T05:26:11.754Z,16.82
2016-11-13T05:27:20.737Z,16.86
2016-11-13T05:28:30.222Z,16.81
2016-11-13T05:29:39.245Z,16.75
2016-11-13T05:30:48.250Z,16.81
2016-11-13T05:31:56.929Z,16.83
2016-11-13T05:33:06.528Z,16.81
2016-11-13T05:34:16.272Z,16.75
2016-11-13T05:35:25.568Z,16.75
2016-11-13T05:36:34.855Z,16.78
2016-11-13T05:37:43.844Z,16.79
2016-11-13T05:38:52.837Z,16.78
2016-11-13T05:40:02.146Z,16.76
2016-11-13T05:41:12.079Z,16.85
2016-11-13T05:42:21.074Z,16.75
2016-11-13T05:43:29.750Z,16.71
2016-11-13T05:44:39.054Z,16.73
2016-11-13T05:45:47.730Z,16.76
2016-11-13T05:46:57.338Z,16.81
2016-11-13T05:48:06.630Z,16.73
2016-11-13T05:49:15.311Z,16.78
2016-11-13T05:50:24.303Z,16.71
2016-11-13T05:51:34.526Z,16.73
2016-11-13T05:52:43.825Z,16.7
2016-11-13T05:53:52.813Z,16.73
2016-11-13T05:55:01.506Z,16.75
2016-11-13T05:56:10.828Z,16.76
2016-11-13T05:57:20.785Z,16.76
2016-11-13T05:58:30.137Z,16.73
2016-11-13T05:59:39.498Z,16.76
2016-11-13T06:00:48.508Z,16.78
2016-11-13T06:01:57.495Z,16.76
2016-11-13T06:03:07.128Z,16.71
2016-11-13T06:04:15.895Z,16.68
2016-11-13T06:05:25.202Z,16.71
2016-11-13T06:06:34.503Z,16.57
2016-11-13T06:07:43.491Z,16.61
2016-11-13T06:08:52.479Z,16.64
2016-11-13T06:10:01.531Z,16.68
2016-11-13T06:11:10.256Z,16.71
2016-11-13T06:12:19.254Z,16.71
2016-11-13T06:13:27.936Z,16.71
2016-11-13T06:14:37.250Z,16.68
2016-11-13T06:15:45.937Z,16.68
2016-11-13T06:16:54.629Z,16.68
2016-11-13T06:18:03.318Z,16.67
2016-11-13T06:19:12.010Z,16.64
2016-11-13T06:20:21.457Z,16.7
2016-11-13T06:21:31.075Z,16.61
2016-11-13T06:22:39.761Z,16.61
2016-11-13T06:23:48.483Z,16.6
2016-11-13T06:24:57.519Z,16.6
2016-11-13T06:26:06.199Z,16.63
2016-11-13T06:27:14.879Z,16.6
2016-11-13T06:28:23.561Z,16.75
2016-11-13T06:29:32.302Z,16.73
2016-11-13T06:30:40.978Z,16.76
2016-11-13T06:31:50.284Z,16.7
2016-11-13T06:32:59.305Z,16.71
2016-11-13T06:34:08.347Z,16.75
2016-11-13T06:35:17.342Z,16.6
2016-11-13T06:36:26.644Z,16.61
2016-11-13T06:37:36.232Z,16.63
2016-11-13T06:38:44.963Z,16.57
2016-11-13T06:39:53.666Z,16.6
2016-11-13T06:41:02.360Z,16.56
2016-11-13T06:42:11.679Z,16.57
2016-11-13T06:43:20.400Z,16.57
2016-11-13T06:44:29.405Z,16.75
2016-11-13T06:45:38.406Z,16.67
2016-11-13T06:46:47.394Z,16.71
2016-11-13T06:47:56.445Z,16.64
2016-11-13T06:49:05.447Z,16.66
2016-11-13T06:50:14.488Z,16.56
2016-11-13T06:51:23.826Z,16.64
2016-11-13T06:52:32.568Z,16.61
2016-11-13T06:53:41.942Z,16.63
2016-11-13T06:54:50.723Z,16.64
2016-11-13T06:55:59.522Z,16.67
2016-11-13T06:57:08.556Z,16.64
2016-11-13T06:58:17.285Z,16.57
2016-11-13T06:59:26.039Z,16.61
2016-11-13T07:00:35.173Z,16.66
2016-11-13T07:01:45.060Z,16.71
2016-11-13T07:02:53.802Z,16.61
2016-11-13T07:04:02.827Z,16.71
2016-11-13T07:05:12.128Z,16.57
2016-11-13T07:06:21.151Z,16.52
2016-11-13T07:07:30.140Z,16.58
2016-11-13T07:08:38.821Z,16.57
2016-11-13T07:09:47.828Z,16.66
2016-11-13T07:10:57.123Z,16.6
2016-11-13T07:12:06.419Z,16.6
2016-11-13T07:13:15.723Z,16.57
2016-11-13T07:14:24.456Z,16.6
2016-11-13T07:15:33.455Z,16.58
2016-11-13T07:16:42.453Z,16.6
2016-11-13T07:17:51.756Z,16.58
2016-11-13T07:19:00.762Z,16.64
2016-11-13T07:20:09.755Z,16.6
2016-11-13T07:21:18.756Z,16.61
2016-11-13T07:22:28.037Z,16.63
2016-11-13T07:23:37.028Z,16.53
2016-11-13T07:24:46.041Z,16.61
2016-11-13T07:25:55.333Z,16.53
2016-11-13T07:27:04.335Z,16.5
2016-11-13T07:28:14.241Z,16.58
2016-11-13T07:29:23.898Z,16.56
2016-11-13T07:30:32.581Z,16.63
2016-11-13T07:31:41.274Z,16.56
2016-11-13T07:32:50.260Z,16.64
2016-11-13T07:33:59.239Z,16.61
2016-11-13T07:35:08.854Z,16.57
2016-11-13T07:36:18.160Z,16.56
2016-11-13T07:37:27.153Z,16.61
2016-11-13T07:38:36.150Z,16.61
2016-11-13T07:39:45.149Z,16.64
2016-11-13T07:40:54.148Z,16.56
2016-11-13T07:42:03.460Z,16.6
2016-11-13T07:43:12.157Z,16.6
2016-11-13T07:44:21.146Z,16.64
2016-11-13T07:45:30.439Z,16.58
2016-11-13T07:46:40.408Z,16.57
2016-11-13T07:47:49.708Z,16.57
2016-11-13T07:48:58.404Z,16.57
2016-11-13T07:50:07.101Z,16.6
2016-11-13T07:51:16.086Z,16.63
2016-11-13T07:52:25.196Z,16.64
2016-11-13T07:53:33.889Z,16.61
2016-11-13T07:54:42.585Z,16.57
2016-11-13T07:55:51.888Z,16.58
2016-11-13T07:57:00.886Z,16.6
2016-11-13T07:58:10.238Z,16.53
2016-11-13T07:59:19.238Z,16.53
2016-11-13T08:00:27.938Z,16.56
2016-11-13T08:01:37.247Z,16.45
2016-11-13T08:02:45.937Z,16.53
2016-11-13T08:03:54.971Z,16.58
2016-11-13T08:05:03.968Z,16.57
2016-11-13T08:06:12.985Z,16.52
2016-11-13T08:07:22.924Z,16.61
2016-11-13T08:08:31.917Z,16.58
2016-11-13T08:09:40.905Z,16.58
2016-11-13T08:10:49.904Z,16.58
2016-11-13T08:11:58.595Z,16.6
2016-11-13T08:13:07.903Z,16.58
2016-11-13T08:14:17.206Z,16.57
2016-11-13T08:15:25.895Z,16.6
2016-11-13T08:16:34.629Z,16.57
2016-11-13T08:17:43.312Z,16.64
2016-11-13T08:18:52.309Z,16.58
2016-11-13T08:20:01.607Z,16.66
2016-11-13T08:21:10.755Z,16.6
2016-11-13T08:22:19.438Z,16.6
2016-11-13T08:23:28.449Z,16.83
2016-11-13T08:24:37.455Z,16.76
2016-11-13T08:25:46.799Z,16.79
2016-11-13T08:26:55.513Z,16.86
2016-11-13T08:28:04.194Z,17.03
2016-11-13T08:29:13.500Z,17.18
2016-11-13T08:30:22.493Z,17.21
2016-11-13T08:31:32.102Z,17.31
2016-11-13T08:32:42.023Z,17.51
2016-11-13T08:33:50.719Z,17.51
2016-11-13T08:34:59.735Z,17.66
2016-11-13T08:36:08.527Z,17.78
2016-11-13T08:37:17.534Z,17.86
2016-11-13T08:38:26.361Z,17.86
2016-11-13T08:39:35.360Z,17.82
2016-11-13T08:40:44.347Z,17.99
2016-11-13T08:41:53.373Z,18
2016-11-13T08:43:02.420Z,18.1
2016-11-13T08:44:12.052Z,18.15
2016-11-13T08:45:20.870Z,18.2
2016-11-13T08:46:29.871Z,18.23
2016-11-13T08:47:39.289Z,18.3
2016-11-13T08:48:48.285Z,18.48
2016-11-13T08:49:57.636Z,18.42
2016-11-13T08:51:06.644Z,18.5
2016-11-13T08:52:15.343Z,18.65
2016-11-13T08:53:24.754Z,18.51
2016-11-13T08:54:33.767Z,18.54
2016-11-13T08:55:42.793Z,18.5
2016-11-13T08:56:52.420Z,18.54
2016-11-13T08:58:02.010Z,18.52
2016-11-13T08:59:11.120Z,18.57
2016-11-13T09:00:20.120Z,18.65
2016-11-13T09:01:28.893Z,18.73
2016-11-13T09:02:37.719Z,18.82
2016-11-13T09:03:47.346Z,18.82
2016-11-13T09:04:56.728Z,18.82
2016-11-13T09:06:05.853Z,18.8
2016-11-13T09:07:15.165Z,18.87
2016-11-13T09:08:24.583Z,19
2016-11-13T09:09:34.149Z,18.88
2016-11-13T09:10:43.149Z,18.92
2016-11-13T09:11:52.143Z,18.92
2016-11-13T09:13:00.827Z,18.9
2016-11-13T09:14:09.514Z,18.94
2016-11-13T09:15:18.874Z,18.78
2016-11-13T09:16:27.866Z,18.81
2016-11-13T09:17:36.613Z,18.72
2016-11-13T09:18:45.941Z,18.75
2016-11-13T09:19:54.625Z,18.78
2016-11-13T09:21:03.332Z,18.88
2016-11-13T09:22:12.644Z,18.84
2016-11-13T09:23:21.643Z,18.81
2016-11-13T09:24:30.946Z,18.87
2016-11-13T09:25:39.636Z,18.78
2016-11-13T09:26:48.628Z,18.88
2016-11-13T09:27:57.643Z,18.8
2016-11-13T09:29:06.361Z,18.82
2016-11-13T09:30:15.658Z,18.87
2016-11-13T09:31:24.954Z,18.92
2016-11-13T09:32:33.642Z,19.02
2016-11-13T09:33:42.645Z,18.98
2016-11-13T09:34:51.955Z,19.13
2016-11-13T09:36:00.944Z,19.26
2016-11-13T09:37:10.246Z,19.41
2016-11-13T09:38:18.931Z,19.46
2016-11-13T09:39:27.631Z,19.58
2016-11-13T09:40:36.622Z,19.63
2016-11-13T09:41:45.919Z,19.73
2016-11-13T09:42:55.243Z,19.68
2016-11-13T09:44:04.596Z,19.84
2016-11-13T09:45:13.606Z,20.14
2016-11-13T09:46:22.924Z,20.36
2016-11-13T09:47:32.215Z,20.54
2016-11-13T09:48:41.520Z,20.69
2016-11-13T09:49:50.838Z,20.88
2016-11-13T09:50:59.866Z,20.87
2016-11-13T09:52:08.578Z,20.94
2016-11-13T09:53:17.589Z,21.03
2016-11-13T09:54:26.276Z,21.06
2016-11-13T09:55:34.969Z,20.99
2016-11-13T09:56:43.968Z,20.97
2016-11-13T09:57:53.264Z,20.98
2016-11-13T09:59:02.275Z,20.89
2016-11-13T10:00:10.973Z,21.03
2016-11-13T10:01:20.307Z,20.97
2016-11-13T10:02:28.996Z,20.97
2016-11-13T10:03:38.009Z,20.88
2016-11-13T10:04:47.007Z,20.94
2016-11-13T10:05:56.009Z,21.01
2016-11-13T10:07:04.703Z,21.14
2016-11-13T10:08:13.699Z,21.12
2016-11-13T10:09:22.401Z,21.21
2016-11-13T10:10:31.403Z,21.21
2016-11-13T10:11:41.034Z,21.24
2016-11-13T10:12:50.023Z,21.27
2016-11-13T10:13:59.350Z,21.13
2016-11-13T10:15:08.351Z,21.19
2016-11-13T10:16:17.957Z,21.09
2016-11-13T10:17:27.271Z,21.12
2016-11-13T10:18:36.252Z,21.14
2016-11-13T10:19:45.269Z,21.13
2016-11-13T10:20:54.583Z,21.22
2016-11-13T10:22:04.254Z,21.31
2016-11-13T10:23:13.592Z,21.34
2016-11-13T10:24:22.894Z,21.22
2016-11-13T10:25:32.193Z,21.29
2016-11-13T10:26:40.881Z,21.42
2016-11-13T10:27:49.564Z,21.42
2016-11-13T10:28:58.890Z,21.43
2016-11-13T10:30:08.196Z,21.44
2016-11-13T10:31:17.189Z,21.29
2016-11-13T10:32:26.251Z,21.32
2016-11-13T10:33:35.553Z,21.35
2016-11-13T10:34:44.240Z,21.31
2016-11-13T10:35:53.848Z,21.16
2016-11-13T10:37:02.541Z,21.1
2016-11-13T10:38:11.545Z,20.16
2016-11-13T10:39:20.539Z,18.37
2016-11-13T10:40:29.838Z,17.72
2016-11-13T10:41:38.853Z,17.14
2016-11-13T10:42:47.871Z,16.63
2016-11-13T10:43:56.869Z,16.56
2016-11-13T10:45:05.867Z,16.28
2016-11-13T10:46:14.869Z,16.11
2016-11-13T10:47:24.173Z,15.78
2016-11-13T10:48:32.894Z,15.67
2016-11-13T10:49:41.583Z,15.46
2016-11-13T10:50:51.189Z,15.32
2016-11-13T10:52:00.178Z,15.29
2016-11-13T10:53:08.871Z,15.43
2016-11-13T10:54:17.570Z,15.19
2016-11-13T10:55:27.295Z,15.03
2016-11-13T10:56:36.534Z,14.73
2016-11-13T10:57:45.693Z,14.84
2016-11-13T10:58:54.845Z,14.77
2016-11-13T11:00:04.328Z,14.81
2016-11-13T11:01:13.333Z,14.65
2016-11-13T11:02:22.016Z,14.24
2016-11-13T11:03:30.773Z,14.14
2016-11-13T11:04:40.161Z,14.24
2016-11-13T11:05:49.502Z,14.2
2016-11-13T11:06:58.596Z,13.85
2016-11-13T11:08:08.023Z,13.88
2016-11-13T11:09:17.849Z,13.89
2016-11-13T11:10:26.593Z,13.99
2016-11-13T11:11:35.396Z,13.73
2016-11-13T11:12:45.298Z,13.79
2016-11-13T11:13:55.003Z,14.09
2016-11-13T11:15:04.068Z,13.97
2016-11-13T11:16:13.474Z,13.82
2016-11-13T11:17:22.275Z,13.91
2016-11-13T11:18:30.959Z,13.91
2016-11-13T11:19:39.964Z,13.69
2016-11-13T11:20:49.681Z,13.69
2016-11-13T11:21:59.334Z,13.62
2016-11-13T11:23:08.778Z,13.69
2016-11-13T11:24:17.793Z,13.67
2016-11-13T11:25:26.850Z,13.42
2016-11-13T11:26:35.878Z,13.36
2016-11-13T11:27:45.199Z,12.92
2016-11-13T11:28:54.204Z,13.07
2016-11-13T11:30:03.530Z,13.15
2016-11-13T11:31:12.243Z,13.77
2016-11-13T11:32:20.956Z,14.39
2016-11-13T11:33:29.680Z,15.1
2016-11-13T11:34:38.698Z,15.44
2016-11-13T11:35:48.043Z,16.04
2016-11-13T11:36:57.048Z,16.35
2016-11-13T11:38:05.731Z,16.6
2016-11-13T11:39:14.728Z,16.93
2016-11-13T11:40:23.424Z,16.24
2016-11-13T11:41:32.732Z,15.5
2016-11-13T11:42:41.805Z,15.02
2016-11-13T11:43:51.168Z,14.58
2016-11-13T11:45:00.180Z,14.83
2016-11-13T11:46:09.512Z,15.6
2016-11-13T11:47:18.521Z,16.07
2016-11-13T11:48:28.000Z,16.75
2016-11-13T11:49:37.603Z,17.15
2016-11-13T11:50:46.283Z,17.33
2016-11-13T11:51:55.903Z,17.43
2016-11-13T11:53:04.921Z,17.62
2016-11-13T11:54:13.659Z,17.72
2016-11-13T11:55:23.286Z,17.82
2016-11-13T11:56:31.981Z,17.97
2016-11-13T11:57:40.972Z,17.96
2016-11-13T11:58:50.642Z,18.3
2016-11-13T12:00:00.424Z,18.37
2016-11-13T12:01:09.739Z,18.47
2016-11-13T12:02:18.748Z,18.47
2016-11-13T12:03:28.375Z,18.48
2016-11-13T12:04:37.382Z,18.55
2016-11-13T12:05:46.383Z,18.6
2016-11-13T12:06:55.385Z,18.58
2016-11-13T12:08:04.075Z,18.57
2016-11-13T12:09:13.080Z,18.7
2016-11-13T12:10:22.098Z,18.66
2016-11-13T12:11:30.855Z,18.78
2016-11-13T12:12:39.554Z,18.82
2016-11-13T12:13:48.880Z,18.84
2016-11-13T12:14:58.191Z,18.92
2016-11-13T12:16:07.818Z,18.88
2016-11-13T12:17:16.800Z,18.91
2016-11-13T12:18:25.802Z,18.95
2016-11-13T12:19:34.522Z,18.91
2016-11-13T12:20:43.540Z,18.92
2016-11-13T12:21:52.870Z,18.91
2016-11-13T12:23:02.476Z,18.88
2016-11-13T12:24:11.166Z,18.91
2016-11-13T12:25:20.467Z,18.9
2016-11-13T12:26:29.159Z,18.88
2016-11-13T12:27:38.474Z,18.76
2016-11-13T12:28:47.640Z,18.87
2016-11-13T12:29:57.258Z,18.94
2016-11-13T12:31:06.568Z,18.82
2016-11-13T12:32:16.228Z,18.85
2016-11-13T12:33:25.215Z,18.87
2016-11-13T12:34:34.200Z,18.82
2016-11-13T12:35:43.203Z,18.75
2016-11-13T12:36:51.904Z,18.78
2016-11-13T12:38:00.909Z,18.75
2016-11-13T12:39:09.607Z,18.78
2016-11-13T12:40:18.628Z,18.72
2016-11-13T12:41:27.933Z,18.7
2016-11-13T12:42:36.925Z,18.7
2016-11-13T12:43:45.634Z,18.63
2016-11-13T12:44:54.318Z,18.62
2016-11-13T12:46:03.633Z,18.73
2016-11-13T12:47:12.646Z,18.66
2016-11-13T12:48:21.957Z,18.57
2016-11-13T12:49:31.283Z,18.5
2016-11-13T12:50:40.358Z,18.55
2016-11-13T12:51:49.358Z,18.48
2016-11-13T12:52:58.361Z,18.48
2016-11-13T12:54:07.704Z,18.51
2016-11-13T12:55:16.404Z,18.45
2016-11-13T12:56:25.404Z,18.39
2016-11-13T12:57:34.410Z,18.45
2016-11-13T12:58:43.109Z,18.42
2016-11-13T12:59:52.418Z,18.47
2016-11-13T13:01:01.125Z,18.5
2016-11-13T13:02:09.823Z,18.47
2016-11-13T13:03:18.840Z,18.39
2016-11-13T13:04:27.837Z,18.37
2016-11-13T13:05:36.877Z,18.42
2016-11-13T13:06:45.894Z,18.35
2016-11-13T13:07:54.603Z,18.41
2016-11-13T13:09:03.460Z,18.29
2016-11-13T13:10:12.774Z,18.36
2016-11-13T13:11:21.463Z,18.33
2016-11-13T13:12:31.415Z,18.23
2016-11-13T13:13:41.131Z,18.21
2016-11-13T13:14:49.955Z,18.18
2016-11-13T13:15:59.063Z,18.18
2016-11-13T13:17:08.069Z,18.3
2016-11-13T13:18:17.093Z,18.25
2016-11-13T13:19:25.829Z,18.23
2016-11-13T13:20:34.694Z,18.15
2016-11-13T13:21:43.683Z,18.17
2016-11-13T13:22:52.400Z,18.17
2016-11-13T13:24:01.103Z,18.18
2016-11-13T13:25:09.815Z,18.12
2016-11-13T13:26:19.136Z,18.08
2016-11-13T13:27:28.136Z,18.17
2016-11-13T13:28:37.459Z,18.15
2016-11-13T13:29:46.454Z,18.11
2016-11-13T13:30:55.460Z,18.02
2016-11-13T13:32:04.784Z,18
2016-11-13T13:33:14.107Z,18.03
2016-11-13T13:34:23.097Z,17.97
2016-11-13T13:35:32.128Z,17.97
2016-11-13T13:36:41.175Z,18
2016-11-13T13:37:50.321Z,17.92
2016-11-13T13:38:59.537Z,17.96
2016-11-13T13:40:08.609Z,17.92
2016-11-13T13:41:17.625Z,17.92
2016-11-13T13:42:26.318Z,17.9
2016-11-13T13:43:35.340Z,17.96
2016-11-13T13:44:44.050Z,17.92
2016-11-13T13:45:53.072Z,17.92
2016-11-13T13:47:02.083Z,17.93
2016-11-13T13:48:11.389Z,18
2016-11-13T13:49:20.291Z,17.95
2016-11-13T13:50:29.291Z,17.93
2016-11-13T13:51:39.216Z,17.96
2016-11-13T13:52:48.228Z,17.97
2016-11-13T13:53:56.927Z,17.99
2016-11-13T13:55:06.252Z,17.89
2016-11-13T13:56:16.200Z,17.87
2016-11-13T13:57:25.196Z,17.92
2016-11-13T13:58:33.885Z,17.87
2016-11-13T13:59:42.586Z,17.9
2016-11-13T14:00:51.892Z,17.9
2016-11-13T14:02:00.596Z,17.92
2016-11-13T14:03:09.594Z,17.9
2016-11-13T14:04:18.300Z,17.96
2016-11-13T14:05:27.454Z,18
2016-11-13T14:06:36.575Z,17.84
2016-11-13T14:07:46.184Z,17.95
2016-11-13T14:08:54.889Z,17.9
2016-11-13T14:10:04.307Z,17.86
2016-11-13T14:11:14.152Z,17.86
2016-11-13T14:12:23.518Z,17.93
2016-11-13T14:13:32.519Z,17.89
2016-11-13T14:14:42.513Z,17.9
2016-11-13T14:15:52.267Z,17.95
2016-11-13T14:17:01.381Z,17.97
2016-11-13T14:18:10.403Z,17.89
2016-11-13T14:19:19.245Z,17.89
2016-11-13T14:20:29.286Z,17.93
2016-11-13T14:21:38.099Z,18
2016-11-13T14:22:46.810Z,17.87
2016-11-13T14:23:55.675Z,17.87
2016-11-13T14:25:04.370Z,17.86
2016-11-13T14:26:13.677Z,17.92
2016-11-13T14:27:22.995Z,17.89
2016-11-13T14:28:31.982Z,18.03
2016-11-13T14:29:41.606Z,18.08
2016-11-13T14:30:50.320Z,18.23
2016-11-13T14:31:59.012Z,18.2
2016-11-13T14:33:07.758Z,18.15
2016-11-13T14:34:16.804Z,18.25
2016-11-13T14:35:25.803Z,18.44
2016-11-13T14:36:34.910Z,18.45
2016-11-13T14:37:44.233Z,18.54
2016-11-13T14:38:53.914Z,18.58
2016-11-13T14:40:02.619Z,18.78
2016-11-13T14:41:12.587Z,18.84
2016-11-13T14:42:21.899Z,18.85
2016-11-13T14:43:30.918Z,18.95
2016-11-13T14:44:39.923Z,19.06
2016-11-13T14:45:48.924Z,19.07
2016-11-13T14:46:58.265Z,19.1
2016-11-13T14:48:07.559Z,19
2016-11-13T14:49:17.177Z,19.02
2016-11-13T14:50:25.877Z,19.06
2016-11-13T14:51:34.938Z,19.06
2016-11-13T14:52:43.938Z,19.08
2016-11-13T14:53:52.938Z,19.16